createdAt,value
2023-05-11T00:01:24.601Z,51.53
2023-05-11T00:04:27.648Z,50.96
2023-05-11T00:07:30.389Z,51.61
2023-05-11T00:10:32.882Z,51.51
2023-05-11T00:13:35.475Z,50.74
2023-05-11T00:16:37.935Z,50.43
2023-05-11T00:19:40.608Z,50.97
2023-05-11T00:22:44.778Z,51.50
2023-05-11T00:25:47.460Z,51.73
2023-05-11T00:28:50.195Z,51.71
2023-05-11T00:31:52.757Z,50.94
2023-05-11T00:34:55.954Z,51.36
2023-05-11T00:37:59.183Z,51.39
2023-05-11T00:41:01.883Z,51.28
2023-05-11T00:44:05.092Z,52.27
2023-05-11T00:47:07.818Z,51.55
2023-05-11T00:50:12.176Z,52.27
2023-05-11T00:53:14.710Z,51.96
2023-05-11T00:56:17.315Z,52.21
2023-05-11T00:59:20.296Z,51.95
2023-05-11T01:02:22.851Z,52.14
2023-05-11T01:05:27.946Z,52.66
2023-05-11T01:08:41.416Z,52.49
2023-05-11T01:11:49.661Z,52.09
2023-05-11T01:15:02.387Z,52.01
2023-05-11T01:18:16.128Z,52.20
2023-05-11T01:21:18.762Z,52.58
2023-05-11T01:24:39.899Z,52.75
2023-05-11T01:28:03.591Z,52.63
2023-05-11T01:31:12.784Z,52.17
2023-05-11T01:34:19.977Z,53.14
2023-05-11T01:37:23.327Z,52.20
2023-05-11T01:40:29.253Z,52.52
2023-05-11T01:43:31.713Z,53.05
2023-05-11T01:46:35.127Z,53.60
2023-05-11T01:49:38.932Z,53.73
2023-05-11T01:52:41.522Z,53.49
2023-05-11T01:55:44.112Z,54.12
2023-05-11T01:58:46.591Z,54.08
2023-05-11T02:01:49.227Z,54.91
2023-05-11T02:04:51.871Z,54.75
2023-05-11T02:07:54.646Z,53.61
2023-05-11T02:10:57.918Z,53.56
2023-05-11T02:14:00.504Z,53.58
2023-05-11T02:17:03.600Z,54.34
2023-05-11T02:20:07.612Z,54.85
2023-05-11T02:23:10.161Z,55.77
2023-05-11T02:26:12.996Z,54.83
2023-05-11T02:29:15.534Z,56.04
2023-05-11T02:32:19.247Z,55.89
2023-05-11T02:35:24.665Z,55.39
2023-05-11T02:38:33.438Z,55.99
2023-05-11T02:41:39.738Z,55.89
2023-05-11T02:44:45.790Z,55.96
2023-05-11T02:47:52.942Z,55.42
2023-05-11T02:50:58.896Z,55.86
2023-05-11T02:54:07.318Z,55.90
2023-05-11T02:57:13.032Z,56.20
2023-05-11T03:00:18.293Z,57.47
2023-05-11T03:03:22.337Z,56.45
2023-05-11T03:06:25.213Z,56.73
2023-05-11T03:09:28.025Z,57.25
2023-05-11T03:12:33.930Z,54.81
2023-05-11T03:15:37.922Z,55.33
2023-05-11T03:18:40.983Z,55.03
2023-05-11T03:21:43.451Z,55.33
2023-05-11T03:24:45.968Z,55.62
2023-05-11T03:27:49.573Z,56.15
2023-05-11T03:30:52.540Z,55.43
2023-05-11T03:33:55.053Z,54.74
2023-05-11T03:36:57.629Z,54.35
2023-05-11T03:40:00.183Z,54.05
2023-05-11T03:43:07.678Z,54.48
2023-05-11T03:46:10.742Z,54.59
2023-05-11T03:49:13.834Z,54.78
2023-05-11T03:52:18.022Z,54.78
2023-05-11T03:55:20.485Z,54.50
2023-05-11T03:58:23.223Z,55.23
2023-05-11T04:01:25.929Z,55.75
2023-05-11T04:04:30.389Z,55.98
2023-05-11T04:07:36.194Z,56.02
2023-05-11T04:10:38.893Z,55.73
2023-05-11T04:13:42.553Z,55.41
2023-05-11T04:16:45.218Z,54.97
2023-05-11T04:19:47.730Z,55.17
2023-05-11T04:22:50.297Z,53.60
2023-05-11T04:25:56.182Z,53.50
2023-05-11T04:28:58.866Z,54.05
2023-05-11T04:32:01.442Z,53.99
2023-05-11T04:35:05.506Z,53.16
2023-05-11T04:38:11.244Z,52.46
2023-05-11T04:41:14.933Z,52.35
2023-05-11T04:44:18.036Z,52.61
2023-05-11T04:47:21.633Z,52.44
2023-05-11T04:50:24.934Z,51.77
2023-05-11T04:53:28.543Z,52.43
2023-05-11T04:56:31.366Z,51.95
2023-05-11T04:59:35.310Z,52.13
2023-05-11T05:02:37.976Z,52.03
2023-05-11T05:05:41.050Z,51.32
2023-05-11T05:08:43.645Z,51.46
2023-05-11T05:11:46.455Z,51.81
2023-05-11T05:14:49.001Z,52.17
2023-05-11T05:17:51.672Z,50.87
2023-05-11T05:20:54.899Z,50.76
2023-05-11T05:23:57.389Z,51.22
2023-05-11T05:27:00.050Z,51.66
2023-05-11T05:30:02.856Z,51.53
2023-05-11T05:33:05.961Z,51.51
2023-05-11T05:36:10.700Z,51.34
2023-05-11T05:39:13.332Z,50.56
2023-05-11T05:42:16.446Z,51.95
2023-05-11T05:45:19.062Z,50.16
2023-05-11T05:48:21.874Z,50.64
2023-05-11T05:51:24.627Z,49.65
2023-05-11T05:54:28.124Z,50.22
2023-05-11T05:57:32.650Z,50.19
2023-05-11T06:00:35.884Z,48.92
2023-05-11T06:03:42.536Z,49.83
2023-05-11T06:06:46.152Z,49.42
2023-05-11T06:09:51.475Z,48.19
2023-05-11T06:12:53.904Z,48.90
2023-05-11T06:15:57.064Z,48.30
2023-05-11T06:19:04.905Z,48.21
2023-05-11T06:22:08.037Z,48.85
2023-05-11T06:25:11.741Z,48.98
2023-05-11T06:28:15.182Z,48.60
2023-05-11T06:31:18.762Z,48.58
2023-05-11T06:34:22.608Z,48.42
2023-05-11T06:37:25.826Z,47.94
2023-05-11T06:40:28.444Z,46.11
2023-05-11T06:43:30.912Z,45.62
2023-05-11T06:46:37.176Z,46.74
2023-05-11T06:49:41.643Z,45.48
2023-05-11T06:52:44.110Z,45.22
2023-05-11T06:55:46.736Z,44.18
2023-05-11T06:58:49.098Z,44.19
2023-05-11T07:01:51.801Z,42.95
2023-05-11T07:04:54.428Z,44.36
2023-05-11T07:07:57.478Z,42.57
2023-05-11T07:10:59.838Z,43.89
2023-05-11T07:14:02.348Z,42.04
2023-05-11T07:17:04.914Z,40.68
2023-05-11T07:20:08.115Z,40.24
2023-05-11T07:23:10.723Z,41.04
2023-05-11T07:26:13.184Z,41.68
2023-05-11T07:29:15.858Z,40.94
2023-05-11T07:32:18.349Z,41.23
2023-05-11T07:35:22.197Z,39.83
2023-05-11T07:38:26.370Z,41.43
2023-05-11T07:41:29.176Z,40.60
2023-05-11T07:44:31.842Z,40.33
2023-05-11T07:47:36.759Z,39.71
2023-05-11T07:50:39.742Z,40.10
2023-05-11T07:53:42.221Z,40.10
2023-05-11T07:56:44.759Z,38.77
2023-05-11T07:59:47.191Z,37.98
2023-05-11T08:02:49.709Z,38.92
2023-05-11T08:05:52.252Z,37.17
2023-05-11T08:08:54.872Z,36.83
2023-05-11T08:11:57.844Z,36.04
2023-05-11T08:15:00.306Z,37.76
2023-05-11T08:18:03.132Z,36.82
2023-05-11T08:21:07.556Z,36.07
2023-05-11T08:24:10.618Z,35.29
2023-05-11T08:27:13.347Z,34.24
2023-05-11T08:30:16.074Z,34.92
2023-05-11T08:33:36.103Z,35.48
2023-05-11T08:36:40.278Z,34.50
2023-05-11T08:39:47.571Z,34.26
2023-05-11T08:42:50.401Z,34.31
2023-05-11T08:45:55.128Z,34.88
2023-05-11T08:48:58.223Z,35.76
2023-05-11T08:52:00.978Z,33.40
2023-05-11T08:55:03.369Z,33.43
2023-05-11T08:58:06.736Z,32.24
2023-05-11T09:01:10.610Z,32.92
2023-05-11T09:04:13.207Z,31.70
2023-05-11T09:07:16.426Z,31.89
2023-05-11T09:10:18.853Z,32.55
2023-05-11T09:13:21.154Z,33.20
2023-05-11T09:16:35.700Z,32.52
2023-05-11T09:20:06.107Z,31.71
2023-05-11T09:23:08.874Z,29.87
2023-05-11T09:26:17.606Z,31.38
2023-05-11T09:29:20.804Z,30.03
2023-05-11T09:32:23.564Z,30.42
2023-05-11T09:35:29.959Z,28.80
2023-05-11T09:38:33.110Z,29.53
2023-05-11T09:41:35.926Z,30.17
2023-05-11T09:44:39.031Z,30.10
2023-05-11T09:47:41.673Z,28.39
2023-05-11T09:50:45.464Z,28.20
2023-05-11T09:53:48.234Z,30.08
2023-05-11T09:56:54.375Z,27.98
2023-05-11T09:59:58.006Z,27.41
2023-05-11T10:03:05.918Z,27.87
2023-05-11T10:06:08.408Z,28.22
2023-05-11T10:09:10.892Z,28.59
2023-05-11T10:12:13.213Z,27.23
2023-05-11T10:15:15.592Z,28.52
2023-05-11T10:18:20.114Z,28.72
2023-05-11T10:21:22.896Z,26.91
2023-05-11T10:24:25.293Z,27.92
2023-05-11T10:27:27.989Z,26.16
2023-05-11T10:30:30.834Z,25.18
2023-05-11T10:33:33.289Z,25.01
2023-05-11T10:36:35.956Z,25.44
2023-05-11T10:39:39.233Z,24.74
2023-05-11T10:42:47.607Z,25.09
2023-05-11T10:46:08.885Z,25.93
2023-05-11T10:49:38.378Z,22.62
2023-05-11T10:53:18.296Z,22.81
2023-05-11T10:56:53.088Z,22.90
2023-05-11T11:00:31.189Z,21.58
2023-05-11T11:03:36.917Z,21.51
2023-05-11T11:06:40.812Z,22.47
2023-05-11T11:10:00.570Z,22.43
2023-05-11T11:13:07.572Z,20.64
2023-05-11T11:16:10.378Z,21.13
2023-05-11T11:19:31.091Z,19.78
2023-05-11T11:22:38.685Z,18.88
2023-05-11T11:25:52.289Z,18.23
2023-05-11T11:28:54.814Z,18.61
2023-05-11T11:32:20.392Z,18.17
2023-05-11T11:35:44.830Z,19.79
2023-05-11T11:39:05.670Z,20.82
2023-05-11T11:42:15.216Z,22.03
2023-05-11T11:45:30.295Z,19.82
2023-05-11T11:48:40.524Z,19.01
2023-05-11T11:51:42.980Z,17.65
2023-05-11T11:54:45.661Z,18.13
2023-05-11T11:57:51.385Z,19.90
2023-05-11T12:00:53.883Z,19.76
2023-05-11T12:04:05.921Z,21.87
2023-05-11T12:07:10.176Z,20.71
2023-05-11T12:10:13.311Z,21.20
2023-05-11T12:13:17.103Z,22.06
2023-05-11T12:16:19.826Z,23.48
2023-05-11T12:19:24.542Z,24.75
2023-05-11T12:22:27.303Z,20.66
2023-05-11T12:25:29.685Z,20.46
2023-05-11T12:28:35.288Z,20.37
2023-05-11T12:31:38.742Z,18.93
2023-05-11T12:34:42.019Z,19.75
2023-05-11T12:37:45.021Z,16.84
2023-05-11T12:40:49.108Z,18.20
2023-05-11T12:43:52.077Z,17.65
2023-05-11T12:46:54.731Z,16.93
2023-05-11T12:49:57.525Z,17.72
2023-05-11T12:53:16.567Z,17.27
2023-05-11T12:56:19.014Z,18.10
2023-05-11T12:59:39.208Z,17.36
2023-05-11T13:02:50.429Z,17.55
2023-05-11T13:06:04.360Z,16.82
2023-05-11T13:09:06.831Z,15.56
2023-05-11T13:12:19.079Z,16.21
2023-05-11T13:15:22.616Z,16.21
2023-05-11T13:18:25.267Z,17.66
2023-05-11T13:21:29.849Z,19.86
2023-05-11T13:24:34.251Z,19.25
2023-05-11T13:27:38.186Z,18.57
2023-05-11T13:30:40.935Z,19.13
2023-05-11T13:33:43.395Z,18.13
2023-05-11T13:36:46.385Z,19.32
2023-05-11T13:39:48.772Z,19.55
2023-05-11T13:42:51.597Z,21.70
2023-05-11T13:45:54.041Z,23.93
2023-05-11T13:48:56.598Z,23.57
2023-05-11T13:52:00.198Z,23.94
2023-05-11T13:55:02.719Z,24.79
2023-05-11T13:58:06.219Z,23.92
2023-05-11T14:01:08.788Z,24.21
2023-05-11T14:04:11.362Z,23.98
2023-05-11T14:07:15.364Z,24.85
2023-05-11T14:10:17.975Z,24.29
2023-05-11T14:13:20.767Z,23.61
2023-05-11T14:16:23.259Z,24.85
2023-05-11T14:19:25.727Z,24.57
2023-05-11T14:22:29.223Z,25.06
2023-05-11T14:25:36.131Z,26.04
2023-05-11T14:28:39.772Z,25.14
2023-05-11T14:31:42.232Z,26.39
2023-05-11T14:34:44.478Z,26.62
2023-05-11T14:37:46.730Z,26.59
2023-05-11T14:40:51.649Z,27.06
2023-05-11T14:43:54.797Z,26.45
2023-05-11T14:46:57.497Z,27.17
2023-05-11T14:50:00.412Z,27.16
2023-05-11T14:53:03.104Z,26.78
2023-05-11T14:56:06.042Z,27.53
2023-05-11T14:59:08.818Z,27.58
2023-05-11T15:02:11.035Z,27.88
2023-05-11T15:05:13.563Z,27.89
2023-05-11T15:08:28.876Z,27.92
2023-05-11T15:11:32.539Z,28.03
2023-05-11T15:14:35.129Z,28.31
2023-05-11T15:17:37.664Z,28.92
2023-05-11T15:20:58.634Z,28.94
2023-05-11T15:24:01.156Z,28.32
2023-05-11T15:27:03.396Z,28.49
2023-05-11T15:30:06.575Z,28.99
2023-05-11T15:33:10.302Z,29.26
2023-05-11T15:36:13.910Z,30.45
2023-05-11T15:39:17.775Z,29.84
2023-05-11T15:42:20.973Z,31.02
2023-05-11T15:45:23.497Z,29.98
2023-05-11T15:48:26.374Z,30.69
2023-05-11T15:51:29.630Z,30.37
2023-05-11T15:54:33.360Z,30.77
2023-05-11T15:57:37.756Z,31.31
2023-05-11T16:00:40.364Z,31.58
2023-05-11T16:03:43.231Z,31.38
2023-05-11T16:06:47.111Z,30.79
2023-05-11T16:09:49.748Z,31.26
2023-05-11T16:12:56.567Z,31.71
2023-05-11T16:16:01.088Z,32.67
2023-05-11T16:19:03.796Z,32.42
2023-05-11T16:22:06.473Z,32.34
2023-05-11T16:25:09.561Z,32.43
2023-05-11T16:28:14.464Z,31.46
2023-05-11T16:31:17.431Z,32.91
2023-05-11T16:34:19.964Z,32.18
2023-05-11T16:37:22.485Z,32.85
2023-05-11T16:40:24.923Z,32.67
2023-05-11T16:43:27.544Z,32.90
2023-05-11T16:46:31.321Z,33.29
2023-05-11T16:49:34.004Z,33.03
2023-05-11T16:52:36.478Z,35.00
2023-05-11T16:55:39.498Z,36.90
2023-05-11T16:58:43.547Z,38.60
2023-05-11T17:01:46.381Z,38.25
2023-05-11T17:04:49.008Z,37.71
2023-05-11T17:07:51.879Z,38.05
2023-05-11T17:10:54.349Z,38.00
2023-05-11T17:13:56.829Z,39.90
2023-05-11T17:16:59.492Z,40.79
2023-05-11T17:20:05.921Z,42.99
2023-05-11T17:23:08.539Z,43.54
2023-05-11T17:26:11.769Z,44.59
2023-05-11T17:29:15.053Z,43.64
2023-05-11T17:32:17.675Z,43.97
2023-05-11T17:35:20.405Z,43.83
2023-05-11T17:38:22.893Z,43.33
2023-05-11T17:41:25.615Z,43.35
2023-05-11T17:44:28.688Z,42.78
2023-05-11T17:47:31.709Z,43.33
2023-05-11T17:50:36.493Z,42.84
2023-05-11T17:53:39.304Z,43.33
2023-05-11T17:56:41.646Z,43.22
2023-05-11T17:59:45.826Z,43.55
2023-05-11T18:02:51.542Z,41.67
2023-05-11T18:05:54.519Z,42.86
2023-05-11T18:08:58.761Z,42.26
2023-05-11T18:12:01.620Z,42.37
2023-05-11T18:15:07.920Z,42.59
2023-05-11T18:18:10.723Z,42.69
2023-05-11T18:21:13.373Z,42.73
2023-05-11T18:24:17.756Z,43.33
2023-05-11T18:27:20.167Z,44.03
2023-05-11T18:30:22.763Z,44.33
2023-05-11T18:33:25.943Z,44.47
2023-05-11T18:36:28.482Z,45.57
2023-05-11T18:39:31.528Z,45.42
2023-05-11T18:42:35.054Z,45.88
2023-05-11T18:45:38.407Z,46.16
2023-05-11T18:48:40.860Z,47.32
2023-05-11T18:51:43.477Z,47.94
2023-05-11T18:54:46.118Z,48.82
2023-05-11T18:57:48.621Z,49.62
2023-05-11T19:00:51.507Z,49.26
2023-05-11T19:03:53.797Z,49.95
2023-05-11T19:06:56.222Z,49.83
2023-05-11T19:10:01.462Z,50.80
2023-05-11T19:13:04.880Z,51.76
2023-05-11T19:16:07.820Z,52.41
2023-05-11T19:19:10.291Z,52.99
2023-05-11T19:22:12.918Z,54.67
2023-05-11T19:25:15.614Z,54.52
2023-05-11T19:28:18.127Z,55.01
2023-05-11T19:31:20.768Z,55.45
2023-05-11T19:34:23.764Z,56.99
2023-05-11T19:37:26.223Z,57.93
2023-05-11T19:43:35.980Z,58.81
2023-05-11T19:46:47.518Z,59.11
2023-05-11T19:49:50.293Z,58.88
2023-05-11T19:52:52.824Z,60.15
2023-05-11T19:55:55.265Z,60.19
2023-05-11T19:58:57.718Z,60.25
2023-05-11T20:02:00.960Z,60.31
2023-05-11T20:05:04.430Z,60.21
2023-05-11T20:08:07.100Z,60.21
2023-05-11T20:11:31.578Z,59.64
2023-05-11T20:14:41.151Z,60.68
2023-05-11T20:17:46.960Z,61.31
2023-05-11T20:20:49.791Z,62.96
2023-05-11T20:23:52.259Z,62.25
2023-05-11T20:26:54.732Z,62.51
2023-05-11T20:29:57.295Z,62.94
2023-05-11T20:36:05.240Z,62.69
2023-05-11T20:39:09.208Z,62.96
2023-05-11T20:42:11.901Z,63.54
2023-05-11T20:45:14.859Z,64.89
2023-05-11T20:48:23.372Z,64.83
2023-05-11T20:51:35.472Z,65.26
2023-05-11T20:54:38.161Z,65.23
2023-05-11T20:57:40.965Z,66.92
2023-05-11T21:00:43.564Z,66.36
2023-05-11T21:03:46.001Z,65.82
2023-05-11T21:06:48.615Z,65.80
2023-05-11T21:09:51.036Z,66.91
2023-05-11T21:12:53.476Z,66.59
2023-05-11T21:15:55.917Z,65.96
2023-05-11T21:18:58.417Z,66.84
2023-05-11T21:22:00.984Z,67.11
2023-05-11T21:25:04.043Z,66.36
2023-05-11T21:28:06.473Z,67.16
2023-05-11T21:31:09.771Z,66.53
2023-05-11T21:34:12.744Z,67.61
2023-05-11T21:37:15.971Z,65.96
2023-05-11T21:40:18.711Z,66.28
2023-05-11T21:43:21.290Z,66.55
2023-05-11T21:46:23.654Z,66.59
2023-05-11T21:49:26.408Z,67.37
2023-05-11T21:52:28.857Z,66.25
2023-05-11T21:55:31.411Z,66.74
2023-05-11T21:58:33.858Z,68.45
2023-05-11T22:01:36.342Z,68.18
2023-05-11T22:04:38.866Z,68.64
2023-05-11T22:07:41.795Z,68.97
2023-05-11T22:10:44.250Z,68.29
2023-05-11T22:13:46.819Z,67.40
2023-05-11T22:16:49.366Z,67.20
2023-05-11T22:19:52.013Z,67.67
2023-05-11T22:22:54.592Z,68.06
2023-05-11T22:25:56.953Z,67.11
2023-05-11T22:28:59.339Z,67.27
2023-05-11T22:32:02.136Z,68.18
2023-05-11T22:35:06.064Z,68.64
2023-05-11T22:38:08.979Z,68.53
2023-05-11T22:41:11.641Z,68.45
2023-05-11T22:44:14.138Z,68.38
2023-05-11T22:52:09.563Z,68.46
2023-05-11T22:55:12.079Z,68.35
2023-05-11T22:58:14.710Z,69.30
2023-05-11T23:01:17.160Z,69.03
2023-05-11T23:04:19.833Z,69.53
2023-05-11T23:07:22.285Z,69.99
2023-05-11T23:10:25.765Z,70.10
2023-05-11T23:13:28.271Z,70.18
2023-05-11T23:16:31.331Z,71.78
2023-05-11T23:19:33.973Z,71.52
2023-05-11T23:22:37.148Z,71.68
2023-05-11T23:25:39.560Z,71.99
2023-05-11T23:34:07.962Z,72.90
2023-05-11T23:37:10.461Z,72.19
2023-05-11T23:40:12.949Z,72.27
2023-05-11T23:43:15.766Z,72.15
2023-05-11T23:46:18.425Z,72.42
2023-05-11T23:49:21.323Z,72.03
2023-05-11T23:52:23.918Z,72.61
2023-05-11T23:55:26.470Z,72.45
2023-05-11T23:58:28.842Z,71.65
